sensor_id;sensor_type;location;lat;lon;timestamp;pressure;altitude;pressure_sealevel;temperature;humidity
23164;BME280;31429;42.674;23.350;2023-05-19T00:00:10;94948.31;;;11.18;100.00
23164;BME280;31429;42.674;23.350;2023-05-19T00:01:14;94939.72;;;11.19;100.00
23164;BME280;31429;42.674;23.350;2023-05-19T00:02:18;94942.97;;;11.24;100.00
23164;BME280;31429;42.674;23.350;2023-05-19T00:03:20;94937.69;;;11.28;100.00
23164;BME280;31429;42.674;23.350;2023-05-19T00:04:21;94941.22;;;11.24;100.00
23164;BME280;31429;42.674;23.350;2023-05-19T00:05:23;94941.91;;;11.29;100.00
23164;BME280;31429;42.674;23.350;2023-05-19T00:06:25;94949.94;;;11.20;100.00
23164;BME280;31429;42.674;23.350;2023-05-19T00:07:30;94935.53;;;11.18;100.00
23164;BME280;31429;42.674;23.350;2023-05-19T00:08:32;94944.91;;;11.17;100.00
23164;BME280;31429;42.674;23.350;2023-05-19T00:09:33;94941.34;;;11.21;100.00
23164;BME280;31429;42.674;23.350;2023-05-19T00:10:34;94940.56;;;11.19;100.00
23164;BME280;31429;42.674;23.350;2023-05-19T00:11:37;94945.47;;;11.25;100.00
23164;BME280;31429;42.674;23.350;2023-05-19T00:12:38;94952.47;;;11.20;100.00
23164;BME280;31429;42.674;23.350;2023-05-19T00:13:40;94940.41;;;11.24;100.00
23164;BME280;31429;42.674;23.350;2023-05-19T00:14:42;94945.47;;;11.25;100.00
23164;BME280;31429;42.674;23.350;2023-05-19T00:15:43;94940.56;;;11.19;100.00
23164;BME280;31429;42.674;23.350;2023-05-19T00:16:44;94938.63;;;11.26;100.00
23164;BME280;31429;42.674;23.350;2023-05-19T00:17:45;94936.22;;;11.21;100.00
23164;BME280;31429;42.674;23.350;2023-05-19T00:18:45;94942.97;;;11.24;100.00
23164;BME280;31429;42.674;23.350;2023-05-19T00:19:47;94937.06;;;11.22;100.00
23164;BME280;31429;42.674;23.350;2023-05-19T00:20:48;94925.75;;;11.27;100.00
23164;BME280;31429;42.674;23.350;2023-05-19T00:21:49;94928.09;;;11.33;100.00
23164;BME280;31429;42.674;23.350;2023-05-19T00:22:49;94923.81;;;11.34;100.00
23164;BME280;31429;42.674;23.350;2023-05-19T00:23:50;94923.09;;;11.30;100.00
23164;BME280;31429;42.674;23.350;2023-05-19T00:24:51;94916.44;;;11.26;100.00
23164;BME280;31429;42.674;23.350;2023-05-19T00:25:52;94922.09;;;11.34;100.00
23164;BME280;31429;42.674;23.350;2023-05-19T00:26:53;94926.97;;;11.40;100.00
23164;BME280;31429;42.674;23.350;2023-05-19T00:27:54;94924.47;;;11.39;100.00
23164;BME280;31429;42.674;23.350;2023-05-19T00:28:56;94928.41;;;11.47;100.00
23164;BME280;31429;42.674;23.350;2023-05-19T00:29:56;94927.22;;;11.56;100.00
23164;BME280;31429;42.674;23.350;2023-05-19T00:30:57;94928.50;;;11.44;100.00
23164;BME280;31429;42.674;23.350;2023-05-19T00:31:57;94927.94;;;11.38;100.00
23164;BME280;31429;42.674;23.350;2023-05-19T00:32:58;94928.94;;;11.34;100.00
23164;BME280;31429;42.674;23.350;2023-05-19T00:33:59;94928.75;;;11.38;100.00
23164;BME280;31429;42.674;23.350;2023-05-19T00:34:59;94928.31;;;11.27;100.00
23164;BME280;31429;42.674;23.350;2023-05-19T00:36:00;94930.00;;;11.28;100.00
23164;BME280;31429;42.674;23.350;2023-05-19T00:37:05;94925.75;;;11.27;100.00
23164;BME280;31429;42.674;23.350;2023-05-19T00:38:05;94933.44;;;11.27;100.00
23164;BME280;31429;42.674;23.350;2023-05-19T00:39:06;94935.34;;;11.22;100.00
23164;BME280;31429;42.674;23.350;2023-05-19T00:40:08;94926.56;;;11.29;100.00
23164;BME280;31429;42.674;23.350;2023-05-19T00:41:09;94924.16;;;11.25;100.00
23164;BME280;31429;42.674;23.350;2023-05-19T00:42:10;94922.97;;;11.33;100.00
23164;BME280;31429;42.674;23.350;2023-05-19T00:43:11;94930.53;;;11.36;100.00
23164;BME280;31429;42.674;23.350;2023-05-19T00:44:13;94928.09;;;11.33;100.00
23164;BME280;31429;42.674;23.350;2023-05-19T00:45:14;94910.59;;;11.23;100.00
23164;BME280;31429;42.674;23.350;2023-05-19T00:46:14;94921.56;;;11.26;100.00
23164;BME280;31429;42.674;23.350;2023-05-19T00:47:15;94917.19;;;11.28;100.00
23164;BME280;31429;42.674;23.350;2023-05-19T00:48:16;94920.59;;;11.29;100.00
23164;BME280;31429;42.674;23.350;2023-05-19T00:49:17;94920.06;;;11.21;100.00
23164;BME280;31429;42.674;23.350;2023-05-19T00:50:17;94921.38;;;11.31;100.00
23164;BME280;31429;42.674;23.350;2023-05-19T00:51:18;94908.75;;;11.26;100.00
23164;BME280;31429;42.674;23.350;2023-05-19T00:52:19;94914.88;;;11.22;100.00
23164;BME280;31429;42.674;23.350;2023-05-19T00:53:20;94914.97;;;11.19;100.00
23164;BME280;31429;42.674;23.350;2023-05-19T00:54:22;94915.47;;;11.29;100.00
23164;BME280;31429;42.674;23.350;2023-05-19T00:55:26;94913.75;;;11.29;100.00
23164;BME280;31429;42.674;23.350;2023-05-19T00:56:27;94920.91;;;11.43;100.00
23164;BME280;31429;42.674;23.350;2023-05-19T00:57:28;94913.56;;;11.34;100.00
23164;BME280;31429;42.674;23.350;2023-05-19T00:58:30;94919.88;;;11.25;100.00
23164;BME280;31429;42.674;23.350;2023-05-19T00:59:33;94918.81;;;11.31;100.00
23164;BME280;31429;42.674;23.350;2023-05-19T01:00:34;94913.06;;;11.24;100.00
23164;BME280;31429;42.674;23.350;2023-05-19T01:01:36;94923.41;;;11.21;100.00
23164;BME280;31429;42.674;23.350;2023-05-19T01:02:37;94919.38;;;11.16;100.00
23164;BME280;31429;42.674;23.350;2023-05-19T01:03:39;94918.00;;;11.07;100.00
23164;BME280;31429;42.674;23.350;2023-05-19T01:04:42;94923.91;;;11.09;100.00
23164;BME280;31429;42.674;23.350;2023-05-19T01:05:44;94917.94;;;11.09;100.00
23164;BME280;31429;42.674;23.350;2023-05-19T01:06:45;94912.84;;;11.09;100.00
23164;BME280;31429;42.674;23.350;2023-05-19T01:07:46;94912.94;;;11.06;100.00
23164;BME280;31429;42.674;23.350;2023-05-19T01:08:51;94923.28;;;11.03;100.00
23164;BME280;31429;42.674;23.350;2023-05-19T01:09:52;94926.63;;;11.05;100.00
23164;BME280;31429;42.674;23.350;2023-05-19T01:10:53;94922.34;;;11.05;100.00
23164;BME280;31429;42.674;23.350;2023-05-19T01:11:54;94921.22;;;11.12;100.00
23164;BME280;31429;42.674;23.350;2023-05-19T01:12:54;94913.88;;;11.03;100.00
23164;BME280;31429;42.674;23.350;2023-05-19T01:13:55;94925.00;;;11.02;100.00
23164;BME280;31429;42.674;23.350;2023-05-19T01:14:57;94923.63;;;10.93;100.00
23164;BME280;31429;42.674;23.350;2023-05-19T01:16:01;94920.78;;;11.01;100.00
23164;BME280;31429;42.674;23.350;2023-05-19T01:17:11;94931.03;;;11.01;100.00
23164;BME280;31429;42.674;23.350;2023-05-19T01:18:19;94931.91;;;11.00;100.00
23164;BME280;31429;42.674;23.350;2023-05-19T01:19:34;94925.41;;;11.15;100.00
23164;BME280;31429;42.674;23.350;2023-05-19T01:20:42;94925.56;;;11.10;100.00
23164;BME280;31429;42.674;23.350;2023-05-19T01:22:05;94924.00;;;11.06;100.00
23164;BME280;31429;42.674;23.350;2023-05-19T01:23:22;94919.78;;;11.05;100.00
23164;BME280;31429;42.674;23.350;2023-05-19T01:26:45;94924.00;;;11.06;100.00
23164;BME280;31429;42.674;23.350;2023-05-19T01:28:15;94928.47;;;11.01;100.00
23164;BME280;31429;42.674;23.350;2023-05-19T01:29:31;94924.34;;;10.97;100.00
23164;BME280;31429;42.674;23.350;2023-05-19T01:30:40;94934.06;;;10.87;100.00
23164;BME280;31429;42.674;23.350;2023-05-19T01:31:41;94931.72;;;10.81;100.00
23164;BME280;31429;42.674;23.350;2023-05-19T01:32:44;94931.34;;;10.92;100.00
23164;BME280;31429;42.674;23.350;2023-05-19T01:33:48;94928.84;;;10.90;100.00
23164;BME280;31429;42.674;23.350;2023-05-19T01:34:51;94932.13;;;10.94;100.00
23164;BME280;31429;42.674;23.350;2023-05-19T01:35:54;94932.31;;;10.89;100.00
23164;BME280;31429;42.674;23.350;2023-05-19T01:36:57;94921.97;;;10.92;100.00
23164;BME280;31429;42.674;23.350;2023-05-19T01:38:00;94920.09;;;10.96;100.00
23164;BME280;31429;42.674;23.350;2023-05-19T01:39:01;94927.78;;;10.96;100.00
23164;BME280;31429;42.674;23.350;2023-05-19T01:40:02;94924.34;;;10.97;100.00
23164;BME280;31429;42.674;23.350;2023-05-19T01:41:05;94923.56;;;10.95;100.00
23164;BME280;31429;42.674;23.350;2023-05-19T01:42:06;94925.41;;;10.91;100.00
23164;BME280;31429;42.674;23.350;2023-05-19T01:43:09;94929.91;;;10.85;100.00
23164;BME280;31429;42.674;23.350;2023-05-19T01:44:10;94928.09;;;10.87;100.00
23164;BME280;31429;42.674;23.350;2023-05-19T01:45:11;94930.66;;;10.87;100.00
23164;BME280;31429;42.674;23.350;2023-05-19T01:46:14;94927.78;;;10.96;100.00
23164;BME280;31429;42.674;23.350;2023-05-19T01:47:15;94933.81;;;10.95;100.00
23164;BME280;31429;42.674;23.350;2023-05-19T01:48:17;94923.78;;;10.89;100.00
23164;BME280;31429;42.674;23.350;2023-05-19T01:49:17;94931.47;;;10.89;100.00
23164;BME280;31429;42.674;23.350;2023-05-19T01:50:18;94925.41;;;10.91;100.00
23164;BME280;31429;42.674;23.350;2023-05-19T01:51:19;94928.50;;;11.00;100.00
23164;BME280;31429;42.674;23.350;2023-05-19T01:52:20;94931.25;;;10.95;100.00
23164;BME280;31429;42.674;23.350;2023-05-19T01:53:20;94934.91;;;10.88;100.00
23164;BME280;31429;42.674;23.350;2023-05-19T01:54:21;94935.97;;;10.82;100.00
23164;BME280;31429;42.674;23.350;2023-05-19T01:55:22;94930.81;;;10.84;100.00
23164;BME280;31429;42.674;23.350;2023-05-19T01:56:30;94929.16;;;10.81;100.00
23164;BME280;31429;42.674;23.350;2023-05-19T01:57:41;94925.22;;;10.96;100.00
23164;BME280;31429;42.674;23.350;2023-05-19T01:58:44;94931.19;;;10.96;100.00
23164;BME280;31429;42.674;23.350;2023-05-19T01:59:51;94927.22;;;10.88;100.00
23164;BME280;31429;42.674;23.350;2023-05-19T02:01:03;94933.69;;;10.98;100.00
23164;BME280;31429;42.674;23.350;2023-05-19T02:02:16;94930.72;;;10.85;100.00
23164;BME280;31429;42.674;23.350;2023-05-19T02:03:36;94933.19;;;10.88;100.00
23164;BME280;31429;42.674;23.350;2023-05-19T02:04:43;94931.25;;;10.95;100.00
23164;BME280;31429;42.674;23.350;2023-05-19T02:05:54;94934.50;;;10.98;100.00
23164;BME280;31429;42.674;23.350;2023-05-19T02:07:00;94932.44;;;10.85;100.00
23164;BME280;31429;42.674;23.350;2023-05-19T02:08:07;94930.31;;;10.98;100.00
23164;BME280;31429;42.674;23.350;2023-05-19T02:09:12;94934.88;;;10.89;100.00
23164;BME280;31429;42.674;23.350;2023-05-19T02:10:20;94936.25;;;10.98;100.00
23164;BME280;31429;42.674;23.350;2023-05-19T02:11:27;94938.00;;;10.96;100.00
23164;BME280;31429;42.674;23.350;2023-05-19T02:12:33;94940.63;;;10.94;100.00
23164;BME280;31429;42.674;23.350;2023-05-19T02:13:36;94936.19;;;11.00;100.00
23164;BME280;31429;42.674;23.350;2023-05-19T02:14:46;94941.25;;;11.01;100.00
23164;BME280;31429;42.674;23.350;2023-05-19T02:15:50;94934.34;;;11.03;100.00
23164;BME280;31429;42.674;23.350;2023-05-19T02:16:51;94940.53;;;10.98;100.00
23164;BME280;31429;42.674;23.350;2023-05-19T02:17:54;94942.25;;;10.97;100.00
23164;BME280;31429;42.674;23.350;2023-05-19T02:18:57;94937.44;;;10.89;100.00
23164;BME280;31429;42.674;23.350;2023-05-19T02:19:58;94936.03;;;10.81;100.00
23164;BME280;31429;42.674;23.350;2023-05-19T02:20:59;94937.31;;;10.92;100.00
23164;BME280;31429;42.674;23.350;2023-05-19T02:22:00;94945.03;;;10.91;100.00
23164;BME280;31429;42.674;23.350;2023-05-19T02:23:00;94940.03;;;10.88;100.00
23164;BME280;31429;42.674;23.350;2023-05-19T02:24:01;94936.81;;;10.83;100.00
23164;BME280;31429;42.674;23.350;2023-05-19T02:25:02;94941.59;;;10.92;100.00
23164;BME280;31429;42.674;23.350;2023-05-19T02:26:03;94939.03;;;10.92;100.00
23164;BME280;31429;42.674;23.350;2023-05-19T02:27:04;94937.69;;;11.05;100.00
23164;BME280;31429;42.674;23.350;2023-05-19T02:28:05;94932.63;;;11.04;100.00
23164;BME280;31429;42.674;23.350;2023-05-19T02:29:06;94936.47;;;11.15;100.00
23164;BME280;31429;42.674;23.350;2023-05-19T02:30:08;94935.09;;;11.07;100.00
23164;BME280;31429;42.674;23.350;2023-05-19T02:31:08;94932.75;;;11.01;100.00
23164;BME280;31429;42.674;23.350;2023-05-19T02:32:09;94942.28;;;10.95;100.00
23164;BME280;31429;42.674;23.350;2023-05-19T02:33:11;94936.72;;;11.08;100.00
23164;BME280;31429;42.674;23.350;2023-05-19T02:34:12;94941.59;;;10.92;100.00
23164;BME280;31429;42.674;23.350;2023-05-19T02:35:13;94936.28;;;10.96;100.00
23164;BME280;31429;42.674;23.350;2023-05-19T02:36:13;94945.75;;;10.94;100.00
23164;BME280;31429;42.674;23.350;2023-05-19T02:37:15;94944.03;;;10.95;100.00
23164;BME280;31429;42.674;23.350;2023-05-19T02:38:15;94943.97;;;10.96;100.00
23164;BME280;31429;42.674;23.350;2023-05-19T02:39:17;94945.03;;;10.91;100.00
23164;BME280;31429;42.674;23.350;2023-05-19T02:40:18;94947.53;;;10.92;100.00
23164;BME280;31429;42.674;23.350;2023-05-19T02:41:18;94946.50;;;10.98;100.00
23164;BME280;31429;42.674;23.350;2023-05-19T02:42:21;94942.47;;;10.91;100.00
23164;BME280;31429;42.674;23.350;2023-05-19T02:43:22;94942.78;;;10.82;100.00
23164;BME280;31429;42.674;23.350;2023-05-19T02:44:22;94945.47;;;10.79;100.00
23164;BME280;31429;42.674;23.350;2023-05-19T02:45:23;94944.59;;;10.80;100.00
23164;BME280;31429;42.674;23.350;2023-05-19T02:46:23;94946.56;;;10.72;100.00
23164;BME280;31429;42.674;23.350;2023-05-19T02:47:24;94945.81;;;10.70;100.00
23164;BME280;31429;42.674;23.350;2023-05-19T02:48:26;94939.97;;;10.66;100.00
23164;BME280;31429;42.674;23.350;2023-05-19T02:49:27;94939.00;;;10.69;100.00
23164;BME280;31429;42.674;23.350;2023-05-19T02:50:30;94946.41;;;10.76;100.00
23164;BME280;31429;42.674;23.350;2023-05-19T02:51:30;94943.00;;;10.76;100.00
23164;BME280;31429;42.674;23.350;2023-05-19T02:52:31;94948.28;;;10.71;100.00
23164;BME280;31429;42.674;23.350;2023-05-19T02:53:32;94950.53;;;10.80;100.00
23164;BME280;31429;42.674;23.350;2023-05-19T02:54:33;94941.81;;;10.86;100.00
23164;BME280;31429;42.674;23.350;2023-05-19T02:55:34;94942.47;;;10.91;100.00
23164;BME280;31429;42.674;23.350;2023-05-19T02:56:34;94951.59;;;10.98;100.00
23164;BME280;31429;42.674;23.350;2023-05-19T02:57:35;94946.75;;;10.90;100.00
23164;BME280;31429;42.674;23.350;2023-05-19T02:58:36;94945.47;;;10.79;100.00
23164;BME280;31429;42.674;23.350;2023-05-19T02:59:36;94952.25;;;10.80;100.00
23164;BME280;31429;42.674;23.350;2023-05-19T03:00:37;94953.13;;;10.79;100.00
23164;BME280;31429;42.674;23.350;2023-05-19T03:01:38;94954.16;;;10.75;100.00
23164;BME280;31429;42.674;23.350;2023-05-19T03:02:39;94947.25;;;10.77;100.00
23164;BME280;31429;42.674;23.350;2023-05-19T03:03:42;94948.97;;;10.76;100.00
23164;BME280;31429;42.674;23.350;2023-05-19T03:04:42;94955.69;;;10.79;100.00
23164;BME280;31429;42.674;23.350;2023-05-19T03:05:43;94944.78;;;10.74;100.00
23164;BME280;31429;42.674;23.350;2023-05-19T03:06:43;94951.59;;;10.75;100.00
23164;BME280;31429;42.674;23.350;2023-05-19T03:07:44;94949.59;;;10.83;100.00
23164;BME280;31429;42.674;23.350;2023-05-19T03:08:46;94955.75;;;10.77;100.00
23164;BME280;31429;42.674;23.350;2023-05-19T03:09:46;94957.25;;;10.83;100.00
23164;BME280;31429;42.674;23.350;2023-05-19T03:10:47;94954.28;;;10.95;100.00
23164;BME280;31429;42.674;23.350;2023-05-19T03:11:48;94955.44;;;10.86;100.00
23164;BME280;31429;42.674;23.350;2023-05-19T03:12:48;94964.72;;;10.89;100.00
23164;BME280;31429;42.674;23.350;2023-05-19T03:13:49;94960.91;;;10.76;100.00
23164;BME280;31429;42.674;23.350;2023-05-19T03:14:50;94956.53;;;10.79;100.00
23164;BME280;31429;42.674;23.350;2023-05-19T03:15:50;94960.66;;;10.83;100.00
23164;BME280;31429;42.674;23.350;2023-05-19T03:16:51;94964.72;;;10.89;100.00
23164;BME280;31429;42.674;23.350;2023-05-19T03:17:52;94955.31;;;10.89;100.00
23164;BME280;31429;42.674;23.350;2023-05-19T03:18:54;94968.00;;;10.92;100.00
23164;BME280;31429;42.674;23.350;2023-05-19T03:19:55;94959.72;;;10.86;100.00
23164;BME280;31429;42.674;23.350;2023-05-19T03:20:55;94964.84;;;10.84;100.00
23164;BME280;31429;42.674;23.350;2023-05-19T03:21:56;94968.50;;;11.02;100.00
23164;BME280;31429;42.674;23.350;2023-05-19T03:22:57;94965.38;;;10.94;100.00
23164;BME280;31429;42.674;23.350;2023-05-19T03:23:58;94968.56;;;11.01;100.00
23164;BME280;31429;42.674;23.350;2023-05-19T03:24:58;94960.88;;;11.01;100.00
23164;BME280;31429;42.674;23.350;2023-05-19T03:25:59;94960.88;;;11.01;100.00
23164;BME280;31429;42.674;23.350;2023-05-19T03:27:00;94963.38;;;11.02;100.00
23164;BME280;31429;42.674;23.350;2023-05-19T03:28:01;94959.88;;;11.05;100.00
23164;BME280;31429;42.674;23.350;2023-05-19T03:29:02;94962.94;;;11.14;100.00
23164;BME280;31429;42.674;23.350;2023-05-19T03:30:03;94958.91;;;11.07;100.00
23164;BME280;31429;42.674;23.350;2023-05-19T03:31:05;94966.38;;;11.13;100.00
23164;BME280;31429;42.674;23.350;2023-05-19T03:32:06;94966.50;;;11.10;100.00
23164;BME280;31429;42.674;23.350;2023-05-19T03:33:06;94959.00;;;11.06;100.00
23164;BME280;31429;42.674;23.350;2023-05-19T03:34:08;94967.66;;;11.02;100.00
23164;BME280;31429;42.674;23.350;2023-05-19T03:35:09;94961.78;;;11.00;100.00
23164;BME280;31429;42.674;23.350;2023-05-19T03:36:10;94963.28;;;11.05;100.00
23164;BME280;31429;42.674;23.350;2023-05-19T03:37:11;94963.44;;;11.01;100.00
23164;BME280;31429;42.674;23.350;2023-05-19T03:38:12;94963.47;;;10.99;100.00
23164;BME280;31429;42.674;23.350;2023-05-19T03:39:13;94965.59;;;11.11;100.00
23164;BME280;31429;42.674;23.350;2023-05-19T03:40:14;94966.78;;;11.03;100.00
23164;BME280;31429;42.674;23.350;2023-05-19T03:41:14;94976.03;;;11.07;100.00
23164;BME280;31429;42.674;23.350;2023-05-19T03:42:15;94964.22;;;11.03;100.00
23164;BME280;31429;42.674;23.350;2023-05-19T03:43:16;94963.81;;;11.13;100.00
23164;BME280;31429;42.674;23.350;2023-05-19T03:44:17;94968.94;;;11.13;100.00
23164;BME280;31429;42.674;23.350;2023-05-19T03:45:17;94966.44;;;11.12;100.00
23164;BME280;31429;42.674;23.350;2023-05-19T03:46:18;94963.78;;;11.15;100.00
23164;BME280;31429;42.674;23.350;2023-05-19T03:47:18;94966.94;;;11.21;100.00
23164;BME280;31429;42.674;23.350;2023-05-19T03:48:19;94969.84;;;11.12;100.00
23164;BME280;31429;42.674;23.350;2023-05-19T03:49:21;94969.59;;;11.18;100.00
23164;BME280;31429;42.674;23.350;2023-05-19T03:50:22;94970.06;;;11.29;100.00
23164;BME280;31429;42.674;23.350;2023-05-19T03:51:22;94976.69;;;11.35;100.00
23164;BME280;31429;42.674;23.350;2023-05-19T03:52:23;94964.88;;;11.31;100.00
23164;BME280;31429;42.674;23.350;2023-05-19T03:53:24;94975.19;;;11.29;100.00
23164;BME280;31429;42.674;23.350;2023-05-19T03:54:25;94974.16;;;11.33;100.00
23164;BME280;31429;42.674;23.350;2023-05-19T03:55:26;94974.50;;;11.24;100.00
23164;BME280;31429;42.674;23.350;2023-05-19T03:56:29;94974.59;;;11.21;100.00
23164;BME280;31429;42.674;23.350;2023-05-19T03:57:30;94979.03;;;11.18;100.00
23164;BME280;31429;42.674;23.350;2023-05-19T03:58:30;94977.28;;;11.18;100.00
23164;BME280;31429;42.674;23.350;2023-05-19T03:59:31;94978.72;;;11.25;100.00
23164;BME280;31429;42.674;23.350;2023-05-19T04:00:32;94978.94;;;11.19;100.00
23164;BME280;31429;42.674;23.350;2023-05-19T04:01:33;94971.16;;;11.22;100.00
23164;BME280;31429;42.674;23.350;2023-05-19T04:02:33;94981.41;;;11.22;100.00
23164;BME280;31429;42.674;23.350;2023-05-19T04:03:34;94980.44;;;11.25;100.00
23164;BME280;31429;42.674;23.350;2023-05-19T04:04:36;94978.53;;;11.30;100.00
23164;BME280;31429;42.674;23.350;2023-05-19T04:05:37;94984.47;;;11.32;100.00
23164;BME280;31429;42.674;23.350;2023-05-19T04:06:38;94985.06;;;11.38;100.00
23164;BME280;31429;42.674;23.350;2023-05-19T04:07:38;94985.00;;;11.40;100.00
23164;BME280;31429;42.674;23.350;2023-05-19T04:08:39;94986.50;;;11.45;100.00
23164;BME280;31429;42.674;23.350;2023-05-19T04:09:40;94981.19;;;11.50;100.00
23164;BME280;31429;42.674;23.350;2023-05-19T04:10:41;94972.63;;;11.51;100.00
23164;BME280;31429;42.674;23.350;2023-05-19T04:11:42;94972.09;;;11.65;100.00
23164;BME280;31429;42.674;23.350;2023-05-19T04:12:42;94981.50;;;11.64;100.00
23164;BME280;31429;42.674;23.350;2023-05-19T04:13:43;94971.72;;;11.75;100.00
23164;BME280;31429;42.674;23.350;2023-05-19T04:14:43;94979.38;;;11.77;100.00
23164;BME280;31429;42.674;23.350;2023-05-19T04:15:44;94972.22;;;11.85;100.00
23164;BME280;31429;42.674;23.350;2023-05-19T04:16:45;94979.97;;;11.83;100.00
23164;BME280;31429;42.674;23.350;2023-05-19T04:17:46;94981.44;;;11.89;100.00
23164;BME280;31429;42.674;23.350;2023-05-19T04:18:46;94985.63;;;11.91;100.00
23164;BME280;31429;42.674;23.350;2023-05-19T04:19:48;94984.91;;;11.88;100.00
23164;BME280;31429;42.674;23.350;2023-05-19T04:20:49;94983.41;;;11.82;100.00
23164;BME280;31429;42.674;23.350;2023-05-19T04:21:50;94989.59;;;11.98;100.00
23164;BME280;31429;42.674;23.350;2023-05-19T04:22:51;94987.00;;;12.00;100.00
23164;BME280;31429;42.674;23.350;2023-05-19T04:25:33;94990.53;;;12.18;100.00
23164;BME280;31429;42.674;23.350;2023-05-19T04:26:35;94988.09;;;12.35;100.00
23164;BME280;31429;42.674;23.350;2023-05-19T04:27:37;94993.34;;;12.53;100.00
23164;BME280;31429;42.674;23.350;2023-05-19T04:28:38;94989.66;;;12.39;100.00
23164;BME280;31429;42.674;23.350;2023-05-19T04:29:41;94993.72;;;12.44;100.00
23164;BME280;31429;42.674;23.350;2023-05-19T04:30:42;94994.59;;;12.43;100.00
23164;BME280;31429;42.674;23.350;2023-05-19T04:31:45;94996.19;;;12.46;100.00
23164;BME280;31429;42.674;23.350;2023-05-19T04:32:46;94995.81;;;12.55;100.00
23164;BME280;31429;42.674;23.350;2023-05-19T04:33:47;94997.53;;;12.54;100.00
23164;BME280;31429;42.674;23.350;2023-05-19T04:34:50;95001.91;;;12.52;100.00
23164;BME280;31429;42.674;23.350;2023-05-19T04:35:51;94999.72;;;12.63;100.00
23164;BME280;31429;42.674;23.350;2023-05-19T04:36:51;95004.31;;;12.57;100.00
23164;BME280;31429;42.674;23.350;2023-05-19T04:37:52;95003.22;;;12.62;100.00
23164;BME280;31429;42.674;23.350;2023-05-19T04:38:55;95011.94;;;12.58;100.00
23164;BME280;31429;42.674;23.350;2023-05-19T04:40:01;95009.44;;;12.57;100.00
23164;BME280;31429;42.674;23.350;2023-05-19T04:41:02;95006.41;;;12.47;100.00
23164;BME280;31429;42.674;23.350;2023-05-19T04:42:03;95006.75;;;12.60;100.00
23164;BME280;31429;42.674;23.350;2023-05-19T04:43:04;95006.03;;;12.56;100.00
23164;BME280;31429;42.674;23.350;2023-05-19T04:44:06;95010.78;;;12.65;100.00
23164;BME280;31429;42.674;23.350;2023-05-19T04:45:09;95012.63;;;12.82;100.00
23164;BME280;31429;42.674;23.350;2023-05-19T04:46:11;95004.28;;;12.97;100.00
23164;BME280;31429;42.674;23.350;2023-05-19T04:47:12;95005.38;;;12.92;100.00
23164;BME280;31429;42.674;23.350;2023-05-19T04:48:14;95007.38;;;12.85;100.00
23164;BME280;31429;42.674;23.350;2023-05-19T04:49:15;95006.41;;;12.88;100.00
23164;BME280;31429;42.674;23.350;2023-05-19T04:50:17;95004.00;;;13.03;100.00
23164;BME280;31429;42.674;23.350;2023-05-19T04:51:17;95005.38;;;12.92;100.00
23164;BME280;31429;42.674;23.350;2023-05-19T04:52:19;95006.53;;;12.85;100.00
23164;BME280;31429;42.674;23.350;2023-05-19T04:53:21;95007.56;;;12.81;100.00
23164;BME280;31429;42.674;23.350;2023-05-19T04:54:21;95003.16;;;13.03;100.00
23164;BME280;31429;42.674;23.350;2023-05-19T04:55:22;95014.66;;;12.94;100.00
23164;BME280;31429;42.674;23.350;2023-05-19T04:56:23;95010.13;;;13.01;100.00
23164;BME280;31429;42.674;23.350;2023-05-19T04:57:24;95006.97;;;13.14;100.00
23164;BME280;31429;42.674;23.350;2023-05-19T04:58:24;95014.00;;;13.11;100.00
23164;BME280;31429;42.674;23.350;2023-05-19T04:59:25;95013.66;;;12.98;100.00
23164;BME280;31429;42.674;23.350;2023-05-19T05:00:26;95010.75;;;13.06;100.00
23164;BME280;31429;42.674;23.350;2023-05-19T05:01:27;95026.00;;;13.10;100.00
23164;BME280;31429;42.674;23.350;2023-05-19T05:02:30;95023.22;;;13.15;100.00
23164;BME280;31429;42.674;23.350;2023-05-19T05:03:31;95016.28;;;13.17;100.00
23164;BME280;31429;42.674;23.350;2023-05-19T05:04:34;95020.38;;;13.21;100.00
23164;BME280;31429;42.674;23.350;2023-05-19T05:05:36;95016.13;;;13.20;100.00
23164;BME280;31429;42.674;23.350;2023-05-19T05:06:37;95020.59;;;13.16;100.00
23164;BME280;31429;42.674;23.350;2023-05-19T05:07:37;95024.19;;;13.31;100.00
23164;BME280;31429;42.674;23.350;2023-05-19T05:08:38;95020.47;;;13.19;100.00
23164;BME280;31429;42.674;23.350;2023-05-19T05:09:39;95019.94;;;13.11;100.00
23164;BME280;31429;42.674;23.350;2023-05-19T05:10:40;95025.25;;;13.07;100.00
23164;BME280;31429;42.674;23.350;2023-05-19T05:11:42;95023.09;;;13.18;100.00
23164;BME280;31429;42.674;23.350;2023-05-19T05:12:43;95028.41;;;13.34;100.00
23164;BME280;31429;42.674;23.350;2023-05-19T05:13:44;95021.72;;;13.30;100.00
23164;BME280;31429;42.674;23.350;2023-05-19T05:14:45;95023.13;;;13.37;100.00
23164;BME280;31429;42.674;23.350;2023-05-19T05:15:47;95022.66;;;13.47;100.00
23164;BME280;31429;42.674;23.350;2023-05-19T05:16:48;95026.44;;;13.39;100.00
23164;BME280;31429;42.674;23.350;2023-05-19T05:17:49;95014.09;;;13.28;100.00
23164;BME280;31429;42.674;23.350;2023-05-19T05:18:50;95018.94;;;13.34;100.00
23164;BME280;31429;42.674;23.350;2023-05-19T05:19:52;95017.69;;;13.24;100.00
23164;BME280;31429;42.674;23.350;2023-05-19T05:20:54;95008.16;;;13.06;100.00
23164;BME280;31429;42.674;23.350;2023-05-19T05:21:55;95015.38;;;12.98;100.00
23164;BME280;31429;42.674;23.350;2023-05-19T05:22:57;95010.75;;;13.06;100.00
23164;BME280;31429;42.674;23.350;2023-05-19T05:23:58;95013.56;;;13.20;100.00